createdAt,value
2019-03-30T15:52:55.307Z,61.07
2019-03-30T15:55:26.580Z,61.71
2019-03-30T15:57:57.925Z,62.65
2019-03-30T16:00:29.124Z,62.65
2019-03-30T16:03:00.475Z,63.10
2019-03-30T16:05:31.763Z,63.10
2019-03-30T16:08:04.753Z,63.19
2019-03-30T16:10:35.850Z,62.94
2019-03-30T16:13:07.177Z,63.55
2019-03-30T16:15:38.377Z,64.32
2019-03-30T16:18:09.709Z,65.03
2019-03-30T16:20:40.957Z,65.65
2019-03-30T16:23:12.218Z,66.22
2019-03-30T16:25:45.874Z,66.69
2019-03-30T16:28:17.126Z,67.31
2019-03-30T16:30:49.671Z,67.79
2019-03-30T16:33:20.909Z,68.18
2019-03-30T16:35:52.313Z,68.50
2019-03-30T16:38:23.649Z,68.95
2019-03-30T16:40:54.998Z,69.42
2019-03-30T16:43:26.259Z,69.83
2019-03-30T16:45:58.949Z,70.06
2019-03-30T16:48:30.320Z,70.37
2019-03-30T16:51:01.539Z,70.58
2019-03-30T16:53:32.776Z,70.95
2019-03-30T16:56:04.459Z,71.17
2019-03-30T16:58:35.793Z,71.14
2019-03-30T17:01:08.524Z,71.30
2019-03-30T17:03:40.502Z,71.54
2019-03-30T17:06:11.771Z,71.74
2019-03-30T17:08:42.982Z,71.92
2019-03-30T17:11:14.326Z,72.04
2019-03-30T17:13:45.667Z,72.44
2019-03-30T17:16:18.010Z,72.77
2019-03-30T17:18:49.373Z,73.17
2019-03-30T17:21:20.709Z,73.50
2019-03-30T17:23:52.147Z,73.79
2019-03-30T17:26:23.579Z,74.29
2019-03-30T17:28:57.279Z,74.62
2019-03-30T17:31:30.082Z,75.05
2019-03-30T17:34:01.257Z,75.49
2019-03-30T17:36:33.561Z,75.96
2019-03-30T17:39:07.288Z,76.28
2019-03-30T17:41:38.575Z,76.52
2019-03-30T17:44:11.333Z,76.65
2019-03-30T17:46:42.707Z,76.71
2019-03-30T17:49:14.977Z,76.69
2019-03-30T17:51:48.009Z,76.69
2019-03-30T17:54:20.897Z,76.81
2019-03-30T17:56:52.172Z,77.09
2019-03-30T17:59:23.936Z,77.14
2019-03-30T18:01:55.263Z,77.35
2019-03-30T18:04:26.519Z,77.58
2019-03-30T18:06:57.728Z,77.65
2019-03-30T18:09:29.148Z,77.42
2019-03-30T18:12:00.523Z,77.38
2019-03-30T18:14:31.896Z,77.47
2019-03-30T18:17:03.241Z,77.64
2019-03-30T18:19:34.529Z,77.76
2019-03-30T18:22:05.827Z,77.95
2019-03-30T18:24:37.239Z,78.27
2019-03-30T18:27:09.539Z,78.67
2019-03-30T18:29:44.196Z,78.19
2019-03-30T18:32:15.523Z,78.09
2019-03-30T18:34:46.763Z,79.04
2019-03-30T18:37:18.110Z,79.98
2019-03-30T18:39:49.419Z,81.07
2019-03-30T18:42:20.840Z,82.37
2019-03-30T18:44:54.300Z,83.99
2019-03-30T18:47:25.630Z,84.45
2019-03-30T18:49:56.946Z,84.81
2019-03-30T18:52:28.286Z,85.20
2019-03-30T18:54:59.664Z,85.75
2019-03-30T18:57:32.921Z,86.68
2019-03-30T19:00:07.354Z,87.63
2019-03-30T19:02:39.498Z,88.25
2019-03-30T19:05:10.907Z,88.96
2019-03-30T19:07:43.726Z,89.52
2019-03-30T19:10:15.628Z,89.97
2019-03-30T19:12:47.008Z,90.39
2019-03-30T19:15:18.264Z,90.49
2019-03-30T19:17:49.536Z,90.57
2019-03-30T19:20:21.730Z,90.77
2019-03-30T19:22:53.070Z,91.00
2019-03-30T19:25:24.430Z,91.43
2019-03-30T19:27:55.774Z,91.60
2019-03-30T19:30:27.069Z,91.51
2019-03-30T19:32:58.324Z,91.62
2019-03-30T19:35:30.935Z,91.68
2019-03-30T19:38:03.907Z,91.55
2019-03-30T19:40:35.309Z,91.52
2019-03-30T19:43:06.486Z,91.64
2019-03-30T19:45:37.760Z,92.30
2019-03-30T19:48:09.119Z,92.62
2019-03-30T19:50:40.399Z,92.78
2019-03-30T19:53:13.465Z,93.13
2019-03-30T19:55:44.905Z,93.32
2019-03-30T19:58:16.331Z,93.61
2019-03-30T20:00:47.727Z,93.91
2019-03-30T20:03:20.153Z,94.13
2019-03-30T20:05:51.520Z,94.69
2019-03-30T20:08:22.971Z,94.88
2019-03-30T20:10:54.353Z,94.91
2019-03-30T20:13:25.858Z,94.91
